Terminal Aerodrome Forecast
Issued by NWS Portland, OR

Home | Current Version | Previous Version | Text Only | Print | Product List | Glossary On
Versions: 1 2 3 4 5 6 7 8 9 10 11 12 13 14 15 16 17 18
000
FTUS46 KPQR 101135
TAFHIO
TAF
KHIO 101135Z 1012/1112 VRB02KT 6SM BR BKN004 OVC020
     FM101800 16006KT P6SM VCSH SCT006 BKN020 OVC040
     FM102100 18008KT P6SM -RA BKN025 OVC040
     FM110200 20007KT P6SM -SHRA BKN025 OVC040=

USA.gov is the U.S. government's official web portal to all federal, state and local government web resources and services.